sensor_id;sensor_type;location;lat;lon;timestamp;P1;durP1;ratioP1;P2;durP2;ratioP2
21099;SDS011;10708;50.824;4.408;2022-10-10T00:05:00;3.67;;;2.23;;
21099;SDS011;10708;50.824;4.408;2022-10-10T00:10:03;5.63;;;2.70;;
21099;SDS011;10708;50.824;4.408;2022-10-10T00:15:06;7.00;;;3.10;;
21099;SDS011;10708;50.824;4.408;2022-10-10T00:20:12;4.03;;;2.27;;
21099;SDS011;10708;50.824;4.408;2022-10-10T00:25:16;4.93;;;2.23;;
21099;SDS011;10708;50.824;4.408;2022-10-10T00:30:18;6.43;;;2.60;;
21099;SDS011;10708;50.824;4.408;2022-10-10T00:35:22;4.63;;;2.17;;
21099;SDS011;10708;50.824;4.408;2022-10-10T00:40:25;4.30;;;2.40;;
21099;SDS011;10708;50.824;4.408;2022-10-10T00:45:29;5.30;;;2.43;;
21099;SDS011;10708;50.824;4.408;2022-10-10T00:50:36;6.60;;;2.50;;
21099;SDS011;10708;50.824;4.408;2022-10-10T00:55:42;6.70;;;2.27;;
21099;SDS011;10708;50.824;4.408;2022-10-10T01:00:46;4.30;;;2.30;;
21099;SDS011;10708;50.824;4.408;2022-10-10T01:05:50;3.50;;;2.50;;
21099;SDS011;10708;50.824;4.408;2022-10-10T01:10:57;6.60;;;2.53;;
21099;SDS011;10708;50.824;4.408;2022-10-10T01:16:17;6.23;;;2.53;;
21099;SDS011;10708;50.824;4.408;2022-10-10T01:21:30;5.10;;;2.50;;
21099;SDS011;10708;50.824;4.408;2022-10-10T01:26:58;6.50;;;2.43;;
21099;SDS011;10708;50.824;4.408;2022-10-10T01:32:21;6.43;;;2.87;;
21099;SDS011;10708;50.824;4.408;2022-10-10T01:37:33;8.73;;;2.87;;
21099;SDS011;10708;50.824;4.408;2022-10-10T01:42:41;5.17;;;2.30;;
21099;SDS011;10708;50.824;4.408;2022-10-10T01:47:50;4.87;;;2.47;;
21099;SDS011;10708;50.824;4.408;2022-10-10T01:53:00;4.80;;;2.43;;
21099;SDS011;10708;50.824;4.408;2022-10-10T01:58:14;5.70;;;2.50;;
21099;SDS011;10708;50.824;4.408;2022-10-10T02:03:31;6.13;;;2.63;;
21099;SDS011;10708;50.824;4.408;2022-10-10T02:08:39;8.70;;;2.70;;
21099;SDS011;10708;50.824;4.408;2022-10-10T02:13:46;5.20;;;2.60;;
21099;SDS011;10708;50.824;4.408;2022-10-10T02:18:52;6.97;;;3.00;;
21099;SDS011;10708;50.824;4.408;2022-10-10T02:23:55;6.50;;;2.77;;
21099;SDS011;10708;50.824;4.408;2022-10-10T02:29:05;4.83;;;2.43;;
21099;SDS011;10708;50.824;4.408;2022-10-10T02:34:12;8.70;;;2.57;;
21099;SDS011;10708;50.824;4.408;2022-10-10T02:39:20;7.33;;;3.03;;
21099;SDS011;10708;50.824;4.408;2022-10-10T02:44:27;8.27;;;2.77;;
21099;SDS011;10708;50.824;4.408;2022-10-10T02:49:33;11.50;;;2.87;;
21099;SDS011;10708;50.824;4.408;2022-10-10T02:54:36;5.33;;;2.43;;
21099;SDS011;10708;50.824;4.408;2022-10-10T02:59:38;4.93;;;2.50;;
21099;SDS011;10708;50.824;4.408;2022-10-10T03:04:42;6.33;;;2.80;;
21099;SDS011;10708;50.824;4.408;2022-10-10T03:09:45;4.20;;;2.30;;
21099;SDS011;10708;50.824;4.408;2022-10-10T03:14:47;6.73;;;2.80;;
21099;SDS011;10708;50.824;4.408;2022-10-10T03:19:51;7.40;;;2.77;;
21099;SDS011;10708;50.824;4.408;2022-10-10T03:24:54;5.53;;;2.30;;
21099;SDS011;10708;50.824;4.408;2022-10-10T03:29:56;7.83;;;2.77;;
21099;SDS011;10708;50.824;4.408;2022-10-10T03:35:00;4.80;;;2.50;;
21099;SDS011;10708;50.824;4.408;2022-10-10T03:40:02;5.93;;;2.50;;
21099;SDS011;10708;50.824;4.408;2022-10-10T03:45:06;6.03;;;3.10;;
21099;SDS011;10708;50.824;4.408;2022-10-10T03:50:10;5.47;;;2.57;;
21099;SDS011;10708;50.824;4.408;2022-10-10T03:55:12;10.37;;;2.70;;
21099;SDS011;10708;50.824;4.408;2022-10-10T04:00:14;9.87;;;4.20;;
21099;SDS011;10708;50.824;4.408;2022-10-10T04:05:19;23.67;;;7.87;;
21099;SDS011;10708;50.824;4.408;2022-10-10T04:10:21;7.17;;;4.00;;
21099;SDS011;10708;50.824;4.408;2022-10-10T04:15:23;8.00;;;3.13;;
21099;SDS011;10708;50.824;4.408;2022-10-10T04:20:27;9.63;;;3.20;;
21099;SDS011;10708;50.824;4.408;2022-10-10T04:25:30;6.10;;;3.07;;
21099;SDS011;10708;50.824;4.408;2022-10-10T04:30:33;6.40;;;3.10;;
21099;SDS011;10708;50.824;4.408;2022-10-10T04:35:37;10.07;;;3.70;;
21099;SDS011;10708;50.824;4.408;2022-10-10T04:45:50;5.07;;;2.97;;
21099;SDS011;10708;50.824;4.408;2022-10-10T04:50:54;9.27;;;3.03;;
21099;SDS011;10708;50.824;4.408;2022-10-10T04:55:58;7.90;;;3.57;;
21099;SDS011;10708;50.824;4.408;2022-10-10T05:01:00;9.50;;;3.30;;
21099;SDS011;10708;50.824;4.408;2022-10-10T05:06:05;10.53;;;3.50;;
21099;SDS011;10708;50.824;4.408;2022-10-10T05:11:07;6.40;;;3.30;;
21099;SDS011;10708;50.824;4.408;2022-10-10T05:16:10;7.03;;;3.00;;
21099;SDS011;10708;50.824;4.408;2022-10-10T05:21:13;10.53;;;3.80;;
21099;SDS011;10708;50.824;4.408;2022-10-10T05:26:16;5.97;;;3.60;;
21099;SDS011;10708;50.824;4.408;2022-10-10T05:31:19;9.70;;;3.40;;
21099;SDS011;10708;50.824;4.408;2022-10-10T05:36:23;7.33;;;3.37;;
21099;SDS011;10708;50.824;4.408;2022-10-10T05:41:27;7.57;;;3.40;;
21099;SDS011;10708;50.824;4.408;2022-10-10T05:46:29;6.27;;;3.47;;
21099;SDS011;10708;50.824;4.408;2022-10-10T05:51:33;8.17;;;3.27;;
21099;SDS011;10708;50.824;4.408;2022-10-10T05:56:35;7.70;;;3.13;;
21099;SDS011;10708;50.824;4.408;2022-10-10T06:01:37;7.80;;;3.93;;
21099;SDS011;10708;50.824;4.408;2022-10-10T06:06:41;10.63;;;4.10;;
21099;SDS011;10708;50.824;4.408;2022-10-10T06:11:43;6.10;;;3.40;;
21099;SDS011;10708;50.824;4.408;2022-10-10T06:16:46;8.13;;;3.17;;
21099;SDS011;10708;50.824;4.408;2022-10-10T06:21:49;5.80;;;3.03;;
21099;SDS011;10708;50.824;4.408;2022-10-10T06:26:52;7.13;;;3.30;;
21099;SDS011;10708;50.824;4.408;2022-10-10T06:31:54;7.30;;;3.30;;
21099;SDS011;10708;50.824;4.408;2022-10-10T06:36:57;5.27;;;3.13;;
21099;SDS011;10708;50.824;4.408;2022-10-10T06:42:00;9.97;;;2.90;;
21099;SDS011;10708;50.824;4.408;2022-10-10T06:47:02;7.60;;;3.77;;
21099;SDS011;10708;50.824;4.408;2022-10-10T06:52:06;9.63;;;4.30;;
21099;SDS011;10708;50.824;4.408;2022-10-10T06:57:08;7.20;;;3.43;;
21099;SDS011;10708;50.824;4.408;2022-10-10T07:02:11;8.93;;;3.57;;
21099;SDS011;10708;50.824;4.408;2022-10-10T07:07:16;8.30;;;3.63;;
21099;SDS011;10708;50.824;4.408;2022-10-10T07:12:18;7.40;;;3.33;;
21099;SDS011;10708;50.824;4.408;2022-10-10T07:17:21;6.77;;;3.57;;
21099;SDS011;10708;50.824;4.408;2022-10-10T07:22:25;7.43;;;3.27;;
21099;SDS011;10708;50.824;4.408;2022-10-10T07:27:29;7.53;;;3.30;;
21099;SDS011;10708;50.824;4.408;2022-10-10T07:32:31;8.07;;;3.40;;
21099;SDS011;10708;50.824;4.408;2022-10-10T07:37:35;6.30;;;2.58;;
21099;SDS011;10708;50.824;4.408;2022-10-10T07:42:37;11.57;;;3.20;;
21099;SDS011;10708;50.824;4.408;2022-10-10T07:47:39;9.20;;;3.80;;
21099;SDS011;10708;50.824;4.408;2022-10-10T07:52:43;5.50;;;3.13;;
21099;SDS011;10708;50.824;4.408;2022-10-10T07:57:45;8.82;;;2.90;;
21099;SDS011;10708;50.824;4.408;2022-10-10T08:02:48;8.48;;;2.80;;
21099;SDS011;10708;50.824;4.408;2022-10-10T08:07:53;6.32;;;2.67;;
21099;SDS011;10708;50.824;4.408;2022-10-10T08:12:55;9.63;;;2.50;;
21099;SDS011;10708;50.824;4.408;2022-10-10T08:18:00;6.22;;;2.47;;
21099;SDS011;10708;50.824;4.408;2022-10-10T08:23:04;6.82;;;2.28;;
21099;SDS011;10708;50.824;4.408;2022-10-10T08:28:06;4.88;;;2.60;;
21099;SDS011;10708;50.824;4.408;2022-10-10T08:33:08;11.90;;;2.40;;
21099;SDS011;10708;50.824;4.408;2022-10-10T08:38:12;4.45;;;2.55;;
21099;SDS011;10708;50.824;4.408;2022-10-10T08:43:16;6.80;;;2.42;;
21099;SDS011;10708;50.824;4.408;2022-10-10T08:48:23;7.40;;;2.85;;
21099;SDS011;10708;50.824;4.408;2022-10-10T08:53:32;4.40;;;2.35;;
21099;SDS011;10708;50.824;4.408;2022-10-10T08:58:40;8.50;;;2.60;;
21099;SDS011;10708;50.824;4.408;2022-10-10T09:03:47;5.68;;;2.20;;
21099;SDS011;10708;50.824;4.408;2022-10-10T09:08:53;5.03;;;2.20;;
21099;SDS011;10708;50.824;4.408;2022-10-10T09:14:07;4.10;;;2.20;;
21099;SDS011;10708;50.824;4.408;2022-10-10T09:19:20;7.28;;;2.33;;
21099;SDS011;10708;50.824;4.408;2022-10-10T09:24:33;6.68;;;2.20;;
21099;SDS011;10708;50.824;4.408;2022-10-10T09:29:41;5.78;;;2.42;;
21099;SDS011;10708;50.824;4.408;2022-10-10T09:34:49;9.02;;;2.63;;
21099;SDS011;10708;50.824;4.408;2022-10-10T09:39:58;6.97;;;2.65;;
21099;SDS011;10708;50.824;4.408;2022-10-10T09:45:08;7.10;;;2.47;;
21099;SDS011;10708;50.824;4.408;2022-10-10T09:50:17;7.15;;;2.53;;
21099;SDS011;10708;50.824;4.408;2022-10-10T09:55:24;10.07;;;2.38;;
21099;SDS011;10708;50.824;4.408;2022-10-10T10:00:34;9.00;;;2.55;;
21099;SDS011;10708;50.824;4.408;2022-10-10T10:05:37;7.70;;;2.70;;
21099;SDS011;10708;50.824;4.408;2022-10-10T10:10:44;8.98;;;2.70;;
21099;SDS011;10708;50.824;4.408;2022-10-10T10:15:47;12.15;;;2.70;;
21099;SDS011;10708;50.824;4.408;2022-10-10T10:21:09;7.22;;;2.33;;
21099;SDS011;10708;50.824;4.408;2022-10-10T10:26:17;7.80;;;1.83;;
21099;SDS011;10708;50.824;4.408;2022-10-10T10:36:55;7.93;;;2.58;;
21099;SDS011;10708;50.824;4.408;2022-10-10T10:42:11;4.05;;;2.15;;
21099;SDS011;10708;50.824;4.408;2022-10-10T10:47:27;8.77;;;2.70;;
21099;SDS011;10708;50.824;4.408;2022-10-10T10:52:42;10.45;;;2.28;;
21099;SDS011;10708;50.824;4.408;2022-10-10T10:58:21;6.40;;;2.25;;
21099;SDS011;10708;50.824;4.408;2022-10-10T11:03:43;6.72;;;2.60;;
21099;SDS011;10708;50.824;4.408;2022-10-10T11:08:56;9.20;;;2.45;;
21099;SDS011;10708;50.824;4.408;2022-10-10T11:14:11;11.10;;;2.78;;
21099;SDS011;10708;50.824;4.408;2022-10-10T11:19:24;6.05;;;2.15;;
21099;SDS011;10708;50.824;4.408;2022-10-10T11:24:37;10.25;;;2.42;;
21099;SDS011;10708;50.824;4.408;2022-10-10T11:29:50;9.90;;;2.58;;
21099;SDS011;10708;50.824;4.408;2022-10-10T11:40:36;9.30;;;2.80;;
21099;SDS011;10708;50.824;4.408;2022-10-10T11:45:50;8.07;;;3.20;;
21099;SDS011;10708;50.824;4.408;2022-10-10T11:51:01;6.13;;;2.92;;
21099;SDS011;10708;50.824;4.408;2022-10-10T11:56:14;8.45;;;3.00;;
21099;SDS011;10708;50.824;4.408;2022-10-10T12:01:24;7.78;;;3.25;;
21099;SDS011;10708;50.824;4.408;2022-10-10T12:06:31;6.53;;;2.80;;
21099;SDS011;10708;50.824;4.408;2022-10-10T12:11:38;11.55;;;3.45;;
21099;SDS011;10708;50.824;4.408;2022-10-10T12:16:45;7.78;;;3.30;;
21099;SDS011;10708;50.824;4.408;2022-10-10T12:21:50;6.57;;;3.28;;
21099;SDS011;10708;50.824;4.408;2022-10-10T12:32:44;7.90;;;4.00;;
21099;SDS011;10708;50.824;4.408;2022-10-10T12:43:21;12.00;;;4.15;;
21099;SDS011;10708;50.824;4.408;2022-10-10T12:48:26;9.63;;;3.50;;
21099;SDS011;10708;50.824;4.408;2022-10-10T12:53:30;12.68;;;3.70;;
21099;SDS011;10708;50.824;4.408;2022-10-10T12:58:36;7.85;;;3.35;;
21099;SDS011;10708;50.824;4.408;2022-10-10T13:03:43;9.07;;;3.50;;
21099;SDS011;10708;50.824;4.408;2022-10-10T13:08:47;6.88;;;3.30;;
21099;SDS011;10708;50.824;4.408;2022-10-10T13:13:51;9.90;;;3.70;;
21099;SDS011;10708;50.824;4.408;2022-10-10T13:18:56;8.95;;;3.85;;
21099;SDS011;10708;50.824;4.408;2022-10-10T13:24:00;6.65;;;3.60;;
21099;SDS011;10708;50.824;4.408;2022-10-10T13:29:10;8.60;;;3.95;;
21099;SDS011;10708;50.824;4.408;2022-10-10T13:34:27;9.95;;;3.40;;
21099;SDS011;10708;50.824;4.408;2022-10-10T13:39:35;6.80;;;3.55;;
21099;SDS011;10708;50.824;4.408;2022-10-10T13:44:47;12.88;;;4.32;;
21099;SDS011;10708;50.824;4.408;2022-10-10T13:49:55;8.68;;;4.38;;
21099;SDS011;10708;50.824;4.408;2022-10-10T13:55:12;11.48;;;4.43;;
21099;SDS011;10708;50.824;4.408;2022-10-10T14:00:16;11.60;;;4.50;;
21099;SDS011;10708;50.824;4.408;2022-10-10T14:05:24;10.13;;;4.80;;
21099;SDS011;10708;50.824;4.408;2022-10-10T14:10:33;11.98;;;4.38;;
21099;SDS011;10708;50.824;4.408;2022-10-10T14:15:42;10.50;;;4.32;;
21099;SDS011;10708;50.824;4.408;2022-10-10T14:20:48;9.35;;;4.45;;
21099;SDS011;10708;50.824;4.408;2022-10-10T14:25:51;10.43;;;4.15;;
21099;SDS011;10708;50.824;4.408;2022-10-10T14:30:53;14.77;;;6.13;;
21099;SDS011;10708;50.824;4.408;2022-10-10T14:35:58;11.85;;;5.85;;
21099;SDS011;10708;50.824;4.408;2022-10-10T14:41:00;13.02;;;6.35;;
21099;SDS011;10708;50.824;4.408;2022-10-10T14:46:03;15.95;;;7.65;;
21099;SDS011;10708;50.824;4.408;2022-10-10T14:51:08;14.30;;;8.50;;
21099;SDS011;10708;50.824;4.408;2022-10-10T14:56:11;15.98;;;8.15;;
21099;SDS011;10708;50.824;4.408;2022-10-10T15:01:14;14.00;;;9.00;;
21099;SDS011;10708;50.824;4.408;2022-10-10T15:06:17;19.67;;;8.10;;
21099;SDS011;10708;50.824;4.408;2022-10-10T15:11:20;15.45;;;7.50;;
21099;SDS011;10708;50.824;4.408;2022-10-10T15:16:22;9.05;;;4.80;;
21099;SDS011;10708;50.824;4.408;2022-10-10T15:21:26;7.47;;;4.13;;
21099;SDS011;10708;50.824;4.408;2022-10-10T15:26:28;8.07;;;4.20;;
21099;SDS011;10708;50.824;4.408;2022-10-10T15:31:34;10.50;;;4.20;;
21099;SDS011;10708;50.824;4.408;2022-10-10T15:36:37;5.95;;;3.53;;
21099;SDS011;10708;50.824;4.408;2022-10-10T15:41:40;6.45;;;4.30;;
21099;SDS011;10708;50.824;4.408;2022-10-10T15:46:43;4.80;;;2.95;;
21099;SDS011;10708;50.824;4.408;2022-10-10T15:51:50;3.38;;;2.45;;
21099;SDS011;10708;50.824;4.408;2022-10-10T15:56:52;2.58;;;1.67;;
21099;SDS011;10708;50.824;4.408;2022-10-10T16:01:54;4.57;;;1.45;;
21099;SDS011;10708;50.824;4.408;2022-10-10T16:06:58;1.25;;;0.70;;
21099;SDS011;10708;50.824;4.408;2022-10-10T16:12:00;4.68;;;2.20;;
21099;SDS011;10708;50.824;4.408;2022-10-10T16:17:03;4.80;;;1.52;;
21099;SDS011;10708;50.824;4.408;2022-10-10T16:22:07;5.13;;;1.13;;
21099;SDS011;10708;50.824;4.408;2022-10-10T16:27:11;5.60;;;0.93;;
21099;SDS011;10708;50.824;4.408;2022-10-10T16:32:14;7.70;;;1.30;;
21099;SDS011;10708;50.824;4.408;2022-10-10T16:37:18;9.85;;;1.48;;
21099;SDS011;10708;50.824;4.408;2022-10-10T16:42:20;7.15;;;1.73;;
21099;SDS011;10708;50.824;4.408;2022-10-10T16:47:22;8.90;;;1.42;;
21099;SDS011;10708;50.824;4.408;2022-10-10T16:52:29;7.65;;;1.92;;
21099;SDS011;10708;50.824;4.408;2022-10-10T16:57:37;6.45;;;1.50;;
21099;SDS011;10708;50.824;4.408;2022-10-10T17:02:42;8.40;;;1.92;;
21099;SDS011;10708;50.824;4.408;2022-10-10T17:07:46;6.72;;;1.73;;
21099;SDS011;10708;50.824;4.408;2022-10-10T17:12:49;7.47;;;1.30;;
21099;SDS011;10708;50.824;4.408;2022-10-10T17:17:51;7.82;;;1.60;;
21099;SDS011;10708;50.824;4.408;2022-10-10T17:22:56;7.80;;;1.63;;
21099;SDS011;10708;50.824;4.408;2022-10-10T17:28:18;9.20;;;1.70;;
21099;SDS011;10708;50.824;4.408;2022-10-10T17:38:47;8.73;;;2.00;;
21099;SDS011;10708;50.824;4.408;2022-10-10T17:44:00;7.15;;;1.77;;
21099;SDS011;10708;50.824;4.408;2022-10-10T17:49:04;10.43;;;2.88;;
21099;SDS011;10708;50.824;4.408;2022-10-10T17:54:13;9.35;;;2.20;;
21099;SDS011;10708;50.824;4.408;2022-10-10T17:59:16;10.77;;;2.30;;
21099;SDS011;10708;50.824;4.408;2022-10-10T18:04:18;13.27;;;2.85;;
21099;SDS011;10708;50.824;4.408;2022-10-10T18:09:22;13.40;;;2.00;;
21099;SDS011;10708;50.824;4.408;2022-10-10T18:14:24;11.13;;;1.88;;
21099;SDS011;10708;50.824;4.408;2022-10-10T18:19:27;8.23;;;2.20;;
21099;SDS011;10708;50.824;4.408;2022-10-10T18:24:30;11.65;;;2.33;;
21099;SDS011;10708;50.824;4.408;2022-10-10T18:29:33;9.38;;;1.80;;
21099;SDS011;10708;50.824;4.408;2022-10-10T18:34:36;12.07;;;2.05;;
21099;SDS011;10708;50.824;4.408;2022-10-10T18:39:42;9.13;;;1.35;;
21099;SDS011;10708;50.824;4.408;2022-10-10T18:49:54;12.65;;;1.98;;
21099;SDS011;10708;50.824;4.408;2022-10-10T18:54:58;10.27;;;2.08;;
21099;SDS011;10708;50.824;4.408;2022-10-10T19:00:00;7.67;;;1.93;;
21099;SDS011;10708;50.824;4.408;2022-10-10T19:05:03;10.82;;;2.17;;
21099;SDS011;10708;50.824;4.408;2022-10-10T19:10:08;12.85;;;1.83;;
21099;SDS011;10708;50.824;4.408;2022-10-10T19:15:12;10.27;;;2.17;;
21099;SDS011;10708;50.824;4.408;2022-10-10T19:20:15;8.10;;;2.40;;
21099;SDS011;10708;50.824;4.408;2022-10-10T19:25:19;10.38;;;3.38;;
21099;SDS011;10708;50.824;4.408;2022-10-10T19:30:21;11.45;;;2.47;;
21099;SDS011;10708;50.824;4.408;2022-10-10T19:35:24;11.07;;;3.20;;
21099;SDS011;10708;50.824;4.408;2022-10-10T19:40:30;13.60;;;3.10;;
21099;SDS011;10708;50.824;4.408;2022-10-10T19:45:36;12.07;;;1.90;;
21099;SDS011;10708;50.824;4.408;2022-10-10T19:50:40;9.57;;;2.88;;
21099;SDS011;10708;50.824;4.408;2022-10-10T19:55:56;13.30;;;2.67;;
21099;SDS011;10708;50.824;4.408;2022-10-10T20:01:00;10.07;;;2.97;;
21099;SDS011;10708;50.824;4.408;2022-10-10T20:06:07;10.63;;;2.10;;
21099;SDS011;10708;50.824;4.408;2022-10-10T20:11:10;12.37;;;2.10;;
21099;SDS011;10708;50.824;4.408;2022-10-10T20:16:15;11.87;;;2.50;;
21099;SDS011;10708;50.824;4.408;2022-10-10T20:21:19;8.30;;;2.20;;
21099;SDS011;10708;50.824;4.408;2022-10-10T20:26:24;18.33;;;2.50;;
21099;SDS011;10708;50.824;4.408;2022-10-10T20:31:28;12.67;;;2.77;;
21099;SDS011;10708;50.824;4.408;2022-10-10T20:36:32;12.83;;;2.60;;
21099;SDS011;10708;50.824;4.408;2022-10-10T20:41:36;15.20;;;2.57;;
21099;SDS011;10708;50.824;4.408;2022-10-10T20:46:40;14.00;;;2.50;;
21099;SDS011;10708;50.824;4.408;2022-10-10T20:51:44;12.33;;;2.27;;
21099;SDS011;10708;50.824;4.408;2022-10-10T20:56:51;12.77;;;2.70;;
21099;SDS011;10708;50.824;4.408;2022-10-10T21:02:11;16.23;;;3.10;;
21099;SDS011;10708;50.824;4.408;2022-10-10T21:07:17;10.07;;;3.00;;
21099;SDS011;10708;50.824;4.408;2022-10-10T21:12:22;11.33;;;3.77;;
21099;SDS011;10708;50.824;4.408;2022-10-10T21:17:24;13.73;;;4.17;;
21099;SDS011;10708;50.824;4.408;2022-10-10T21:22:27;16.03;;;5.27;;
21099;SDS011;10708;50.824;4.408;2022-10-10T21:27:30;16.03;;;4.63;;
21099;SDS011;10708;50.824;4.408;2022-10-10T21:32:33;13.00;;;4.77;;
21099;SDS011;10708;50.824;4.408;2022-10-10T21:37:35;21.10;;;5.63;;
21099;SDS011;10708;50.824;4.408;2022-10-10T21:42:39;18.97;;;5.57;;
21099;SDS011;10708;50.824;4.408;2022-10-10T21:47:41;16.77;;;5.67;;
21099;SDS011;10708;50.824;4.408;2022-10-10T21:52:44;12.60;;;4.63;;
21099;SDS011;10708;50.824;4.408;2022-10-10T21:57:47;15.43;;;4.63;;
21099;SDS011;10708;50.824;4.408;2022-10-10T22:02:50;22.33;;;5.70;;
21099;SDS011;10708;50.824;4.408;2022-10-10T22:07:52;21.77;;;5.60;;
21099;SDS011;10708;50.824;4.408;2022-10-10T22:12:56;18.50;;;4.53;;
21099;SDS011;10708;50.824;4.408;2022-10-10T22:17:58;16.43;;;5.10;;
21099;SDS011;10708;50.824;4.408;2022-10-10T22:23:01;14.07;;;4.33;;
21099;SDS011;10708;50.824;4.408;2022-10-10T22:28:04;11.80;;;3.97;;
21099;SDS011;10708;50.824;4.408;2022-10-10T22:33:07;20.33;;;4.73;;
21099;SDS011;10708;50.824;4.408;2022-10-10T22:38:09;16.47;;;4.40;;
21099;SDS011;10708;50.824;4.408;2022-10-10T22:43:13;16.13;;;4.40;;
21099;SDS011;10708;50.824;4.408;2022-10-10T22:48:15;11.23;;;4.13;;
21099;SDS011;10708;50.824;4.408;2022-10-10T22:53:17;10.83;;;4.23;;
21099;SDS011;10708;50.824;4.408;2022-10-10T22:58:21;11.33;;;4.37;;
21099;SDS011;10708;50.824;4.408;2022-10-10T23:03:23;17.63;;;4.60;;
21099;SDS011;10708;50.824;4.408;2022-10-10T23:08:25;11.37;;;3.97;;
21099;SDS011;10708;50.824;4.408;2022-10-10T23:13:29;15.80;;;3.93;;
21099;SDS011;10708;50.824;4.408;2022-10-10T23:18:31;11.57;;;3.80;;
21099;SDS011;10708;50.824;4.408;2022-10-10T23:23:33;8.57;;;3.50;;
21099;SDS011;10708;50.824;4.408;2022-10-10T23:28:37;14.77;;;3.40;;
21099;SDS011;10708;50.824;4.408;2022-10-10T23:33:40;12.97;;;3.83;;
21099;SDS011;10708;50.824;4.408;2022-10-10T23:38:43;12.07;;;3.53;;
21099;SDS011;10708;50.824;4.408;2022-10-10T23:43:47;11.10;;;3.63;;
21099;SDS011;10708;50.824;4.408;2022-10-10T23:48:49;14.80;;;3.67;;
21099;SDS011;10708;50.824;4.408;2022-10-10T23:53:51;16.03;;;3.80;;
21099;SDS011;10708;50.824;4.408;2022-10-10T23:58:55;18.90;;;4.87;;
